Time;durP1;ratioP1;P1;durP2;ratioP2;P2;SDS_P1;SDS_P2;PMS_P1;PMS_P2;Temp;Humidity;BMP_temperature;BMP_pressure;BME280_temperature;BME280_humidity;BME280_pressure;Samples;Min_cycle;Max_cycle;Signal;HPM_P1;HPM_P2
2022/09/20 00:01:09;;;;;;;;;;;14.70;45.10;;;;;;6138964;23;19924;-81
2022/09/20 00:03:37;;;;;;;;;;;14.80;44.30;;;;;;6112659;23;19941;-81
2022/09/20 00:06:05;;;;;;;;;;;14.90;43.50;;;;;;6139271;23;19921;-81
2022/09/20 00:08:33;;;;;;;;;;;15.00;43.20;;;;;;6137419;23;19940;-80
2022/09/20 00:11:01;;;;;;;;;;;15.10;42.90;;;;;;6112913;23;20295;-81
2022/09/20 00:13:28;;;;;;;;;;;15.20;43.00;;;;;;6137438;23;19945;-80
2022/09/20 00:15:55;;;;;;;;;;;15.20;43.00;;;;;;6119194;23;19933;-81
2022/09/20 00:18:22;;;;;;;;;;;15.30;42.80;;;;;;6141172;23;19920;-78
2022/09/20 00:20:49;;;;;;;;;;;15.30;42.80;;;;;;6140146;23;19928;-81
2022/09/20 00:23:16;;;;;;;;;;;15.30;42.70;;;;;;6139028;23;19957;-81
2022/09/20 00:25:43;;;;;;;;;;;15.30;42.70;;;;;;6138128;23;19937;-81
2022/09/20 00:28:10;;;;;;;;;;;15.40;42.60;;;;;;6133264;23;19923;-80
2022/09/20 00:30:37;;;;;;;;;;;15.40;42.50;;;;;;6138294;23;19948;-81
2022/09/20 00:33:04;;;;;;;;;;;15.40;42.30;;;;;;6118922;23;19932;-80
2022/09/20 00:35:31;;;;;;;;;;;15.40;42.30;;;;;;6140465;23;19944;-80
2022/09/20 00:37:58;;;;;;;;;;;15.40;42.60;;;;;;6128985;23;20385;-80
2022/09/20 00:40:29;;;;;;;;;;;15.40;42.50;;;;;;6111998;23;20266;-79
2022/09/20 00:42:55;;;;;;;;;;;15.40;42.00;;;;;;6135020;23;19917;-80
2022/09/20 00:45:24;;;;;;;;;;;15.40;42.20;;;;;;6136400;23;19941;-80
2022/09/20 00:47:53;;;;;;;;;;;15.40;42.10;;;;;;6133359;23;19951;-81
2022/09/20 00:50:33;;;;;;;;;;;15.40;42.00;;;;;;6143556;23;20228;-81
2022/09/20 00:53:03;;;;;;;;;;;15.40;42.20;;;;;;6142620;23;19936;-81
2022/09/20 00:55:30;;;;;;;;;;;15.40;42.50;;;;;;6144063;23;19921;-80
2022/09/20 00:57:58;;;;;;;;;;;15.40;42.80;;;;;;6118440;23;19905;-81
2022/09/20 01:00:25;;;;;;;;;;;15.30;42.30;;;;;;6116308;23;19937;-78
2022/09/20 01:02:55;;;;;;;;;;;15.30;42.50;;;;;;6094663;23;20428;-78
2022/09/20 01:05:22;;;;;;;;;;;15.30;42.80;;;;;;6095367;23;20283;-78
2022/09/20 01:07:50;;;;;;;;;;;15.30;42.80;;;;;;6094700;23;20338;-78
2022/09/20 01:10:17;;;;;;;;;;;15.30;42.70;;;;;;6094975;23;19917;-78
2022/09/20 01:12:44;;;;;;;;;;;15.30;42.60;;;;;;6117162;23;19921;-78
2022/09/20 01:15:12;;;;;;;;;;;15.20;43.10;;;;;;6117829;23;19917;-78
2022/09/20 01:17:41;;;;;;;;;;;15.20;42.90;;;;;;6117159;23;20246;-78
2022/09/20 01:20:11;;;;;;;;;;;15.20;42.90;;;;;;6117848;23;19917;-78
2022/09/20 01:22:57;;;;;;;;;;;15.10;42.70;;;;;;6117492;23;20008;-78
2022/09/20 01:25:42;;;;;;;;;;;15.20;42.50;;;;;;6118167;23;20294;-78
2022/09/20 01:28:08;;;;;;;;;;;15.20;42.60;;;;;;6064626;23;20307;-79
2022/09/20 01:30:41;;;;;;;;;;;15.10;43.10;;;;;;6041433;23;20335;-79
2022/09/20 01:33:40;;;;;;;;;;;15.10;42.90;;;;;;6063596;23;20330;-78
2022/09/20 01:36:09;;;;;;;;;;;15.10;43.10;;;;;;6047906;23;19918;-78
2022/09/20 01:38:45;;;;;;;;;;;15.10;43.00;;;;;;6066049;23;19917;-78
2022/09/20 01:41:24;;;;;;;;;;;15.00;43.20;;;;;;6105106;23;19917;-78
2022/09/20 01:43:57;;;;;;;;;;;15.00;43.00;;;;;;6094764;23;19921;-79
2022/09/20 01:46:31;;;;;;;;;;;15.00;43.30;;;;;;6119238;23;19921;-78
2022/09/20 01:49:05;;;;;;;;;;;15.00;42.90;;;;;;6095573;23;19917;-78
2022/09/20 01:51:35;;;;;;;;;;;15.00;42.90;;;;;;6095638;23;19972;-78
2022/09/20 01:54:11;;;;;;;;;;;15.00;42.80;;;;;;6096488;23;19917;-78
2022/09/20 01:56:40;;;;;;;;;;;15.00;42.80;;;;;;6120086;23;19972;-78
2022/09/20 01:59:12;;;;;;;;;;;15.00;43.00;;;;;;6095990;23;20283;-78
2022/09/20 02:01:52;;;;;;;;;;;15.10;42.40;;;;;;6117012;23;19917;-78
2022/09/20 02:04:32;;;;;;;;;;;15.10;42.70;;;;;;6119892;23;19988;-79
2022/09/20 02:07:19;;;;;;;;;;;15.00;42.70;;;;;;6096240;23;20003;-78
2022/09/20 02:09:51;;;;;;;;;;;15.00;43.00;;;;;;6119371;23;20308;-78
2022/09/20 02:12:51;;;;;;;;;;;15.00;42.60;;;;;;6067443;23;19928;-78
2022/09/20 02:15:35;;;;;;;;;;;15.00;42.80;;;;;;6049743;23;19944;-78
2022/09/20 02:18:20;;;;;;;;;;;15.00;42.60;;;;;;6065605;23;19921;-78
2022/09/20 02:20:50;;;;;;;;;;;15.00;42.20;;;;;;6067873;23;19955;-78
2022/09/20 02:23:35;;;;;;;;;;;15.00;42.40;;;;;;6065372;23;20242;-78
2022/09/20 02:26:02;;;;;;;;;;;15.00;42.20;;;;;;6066907;23;19917;-77
2022/09/20 02:28:55;;;;;;;;;;;15.00;42.30;;;;;;6066391;23;19917;-78
2022/09/20 02:31:40;;;;;;;;;;;14.90;42.30;;;;;;6067676;23;19924;-78
2022/09/20 02:34:07;;;;;;;;;;;14.90;43.20;;;;;;6065380;23;19969;-78
2022/09/20 02:36:40;;;;;;;;;;;14.90;42.40;;;;;;6067476;23;20335;-78
2022/09/20 02:39:10;;;;;;;;;;;14.90;42.50;;;;;;6065141;23;19995;-79
2022/09/20 02:42:00;;;;;;;;;;;14.90;42.40;;;;;;6066253;23;19925;-78
2022/09/20 02:44:42;;;;;;;;;;;14.90;42.20;;;;;;6041803;23;20258;-78
2022/09/20 02:47:11;;;;;;;;;;;14.90;42.50;;;;;;6067681;23;20377;-78
2022/09/20 02:49:50;;;;;;;;;;;14.90;42.20;;;;;;6065851;23;19921;-78
2022/09/20 02:52:23;;;;;;;;;;;15.00;42.20;;;;;;6066720;23;19917;-78
2022/09/20 02:55:05;;;;;;;;;;;14.90;42.40;;;;;;6066102;23;19971;-78
2022/09/20 02:57:32;;;;;;;;;;;14.80;42.50;;;;;;6095415;23;19928;-78
2022/09/20 03:00:11;;;;;;;;;;;14.80;42.60;;;;;;6096287;23;19917;-78
2022/09/20 03:02:58;;;;;;;;;;;14.80;42.00;;;;;;6096010;23;20345;-79
2022/09/20 03:05:43;;;;;;;;;;;14.80;42.20;;;;;;6095498;23;20000;-78
2022/09/20 03:08:10;;;;;;;;;;;14.80;42.10;;;;;;6119181;23;19928;-78
2022/09/20 03:10:55;;;;;;;;;;;14.80;42.20;;;;;;6118310;23;20369;-78
2022/09/20 03:13:34;;;;;;;;;;;14.80;42.00;;;;;;6118181;23;19921;-78
2022/09/20 03:16:08;;;;;;;;;;;14.80;42.00;;;;;;6096023;23;19923;-78
2022/09/20 03:18:34;;;;;;;;;;;14.80;41.90;;;;;;6118040;23;19932;-78
2022/09/20 03:21:07;;;;;;;;;;;14.80;41.70;;;;;;6118791;23;20254;-78
2022/09/20 03:23:40;;;;;;;;;;;14.80;42.00;;;;;;6117974;23;20020;-79
2022/09/20 03:26:27;;;;;;;;;;;14.90;41.40;;;;;;6095999;23;19921;-78
2022/09/20 03:29:06;;;;;;;;;;;14.90;41.10;;;;;;6117754;23;19923;-78
2022/09/20 03:31:57;;;;;;;;;;;14.90;41.00;;;;;;6093310;23;19921;-79
2022/09/20 03:34:43;;;;;;;;;;;15.00;40.70;;;;;;6118865;23;19932;-78
2022/09/20 03:37:10;;;;;;;;;;;15.00;40.30;;;;;;6117693;23;19921;-78
2022/09/20 03:39:47;;;;;;;;;;;15.10;40.40;;;;;;6095371;23;19923;-78
2022/09/20 03:42:32;;;;;;;;;;;15.10;40.30;;;;;;6117559;23;19945;-78
2022/09/20 03:45:04;;;;;;;;;;;15.10;40.50;;;;;;6095020;23;20338;-78
2022/09/20 03:47:50;;;;;;;;;;;15.10;40.60;;;;;;6118361;23;19917;-78
2022/09/20 03:50:19;;;;;;;;;;;15.00;41.10;;;;;;6095309;23;19917;-78
2022/09/20 03:52:55;;;;;;;;;;;15.00;40.80;;;;;;6118390;23;19924;-78
2022/09/20 03:55:34;;;;;;;;;;;14.90;41.10;;;;;;6066309;23;19924;-78
2022/09/20 03:58:09;;;;;;;;;;;14.80;42.50;;;;;;6065592;23;19927;-78
2022/09/20 04:00:56;;;;;;;;;;;14.70;42.00;;;;;;6066350;23;19928;-78
2022/09/20 04:03:43;;;;;;;;;;;14.70;42.70;;;;;;6105535;23;19995;-78
2022/09/20 04:06:25;;;;;;;;;;;14.70;42.00;;;;;;6117605;23;20294;-78
2022/09/20 04:09:10;;;;;;;;;;;14.70;42.20;;;;;;6118168;23;20326;-78
2022/09/20 04:12:04;;;;;;;;;;;14.60;42.20;;;;;;6117396;23;20250;-78
2022/09/20 04:14:57;;;;;;;;;;;14.50;42.60;;;;;;6071381;23;19918;-78
2022/09/20 04:17:45;;;;;;;;;;;14.50;42.20;;;;;;6090629;23;19925;-78
2022/09/20 04:20:22;;;;;;;;;;;14.50;42.30;;;;;;6084287;23;19917;-78
2022/09/20 04:22:51;;;;;;;;;;;14.50;42.30;;;;;;6094867;23;19924;-78
2022/09/20 04:25:26;;;;;;;;;;;14.50;42.40;;;;;;6094090;23;19921;-78
2022/09/20 04:27:59;;;;;;;;;;;14.40;42.50;;;;;;6117674;23;19921;-78
2022/09/20 04:30:29;;;;;;;;;;;14.40;42.40;;;;;;6118088;23;19928;-78
2022/09/20 04:33:14;;;;;;;;;;;14.40;42.50;;;;;;6093856;23;19917;-78
2022/09/20 04:38:29;;;;;;;;;;;14.40;42.50;;;;;;6094641;23;19995;-78
2022/09/20 04:41:15;;;;;;;;;;;14.40;43.00;;;;;;6117120;23;19923;-78
2022/09/20 04:43:49;;;;;;;;;;;14.30;42.40;;;;;;6117252;23;19988;-78
2022/09/20 04:46:28;;;;;;;;;;;14.40;42.30;;;;;;6118021;23;19987;-77
2022/09/20 04:49:04;;;;;;;;;;;14.30;42.40;;;;;;6094304;23;19918;-77
2022/09/20 04:51:40;;;;;;;;;;;14.40;42.40;;;;;;6117181;23;19921;-78
2022/09/20 04:54:25;;;;;;;;;;;14.30;42.40;;;;;;6104982;23;19927;-78
2022/09/20 04:57:15;;;;;;;;;;;14.40;42.10;;;;;;6117104;23;19988;-77
2022/09/20 04:59:59;;;;;;;;;;;14.40;42.30;;;;;;6094975;23;19925;-78
2022/09/20 05:02:47;;;;;;;;;;;14.40;42.10;;;;;;6095039;23;19917;-79
2022/09/20 05:05:34;;;;;;;;;;;14.30;42.30;;;;;;6117065;23;20436;-79
2022/09/20 05:08:19;;;;;;;;;;;14.40;42.00;;;;;;6117872;23;20287;-79
2022/09/20 05:11:00;;;;;;;;;;;14.40;41.80;;;;;;6094124;23;19988;-78
2022/09/20 05:13:53;;;;;;;;;;;14.40;41.90;;;;;;6117140;23;19923;-79
2022/09/20 05:16:25;;;;;;;;;;;14.30;42.00;;;;;;6117489;23;19917;-79
2022/09/20 05:19:05;;;;;;;;;;;14.20;42.40;;;;;;6094628;23;19921;-79
2022/09/20 05:21:45;;;;;;;;;;;14.20;42.70;;;;;;6117832;23;19917;-79
2022/09/20 05:24:30;;;;;;;;;;;14.20;42.50;;;;;;6119682;23;19924;-78
2022/09/20 05:27:00;;;;;;;;;;;14.20;42.90;;;;;;6096590;23;19918;-79
2022/09/20 05:29:48;;;;;;;;;;;14.10;42.80;;;;;;6119860;23;19921;-79
2022/09/20 05:32:29;;;;;;;;;;;14.20;42.40;;;;;;6096683;23;19924;-79
2022/09/20 05:34:59;;;;;;;;;;;14.20;42.70;;;;;;6119803;23;19923;-79
2022/09/20 05:37:31;;;;;;;;;;;14.20;42.60;;;;;;6120233;23;19984;-79
2022/09/20 05:40:03;;;;;;;;;;;14.10;43.00;;;;;;6096380;23;20019;-79
2022/09/20 05:42:46;;;;;;;;;;;14.10;42.80;;;;;;6095199;23;19952;-79
2022/09/20 05:45:22;;;;;;;;;;;14.10;42.90;;;;;;6118920;23;19924;-79
2022/09/20 05:47:54;;;;;;;;;;;14.00;43.40;;;;;;6120080;23;19917;-79
2022/09/20 05:50:32;;;;;;;;;;;14.00;43.20;;;;;;6096691;23;19917;-79
2022/09/20 05:53:25;;;;;;;;;;;14.10;42.80;;;;;;6096539;23;20342;-79
2022/09/20 05:56:10;;;;;;;;;;;14.10;43.20;;;;;;6096761;23;19917;-80
2022/09/20 05:58:57;;;;;;;;;;;14.10;43.40;;;;;;6118530;23;19917;-79
2022/09/20 06:01:25;;;;;;;;;;;14.10;43.20;;;;;;6064986;23;20126;-79
2022/09/20 06:03:57;;;;;;;;;;;14.10;43.90;;;;;;6118910;23;19968;-79
2022/09/20 06:06:44;;;;;;;;;;;14.10;43.90;;;;;;6118217;23;19992;-79
2022/09/20 06:09:17;;;;;;;;;;;14.10;44.10;;;;;;6086303;23;19928;-79
2022/09/20 06:11:47;;;;;;;;;;;14.10;44.10;;;;;;6067737;23;20345;-79
2022/09/20 06:14:29;;;;;;;;;;;14.10;44.30;;;;;;6067160;23;19924;-79
2022/09/20 06:17:15;;;;;;;;;;;14.10;43.70;;;;;;6096406;23;19998;-79
2022/09/20 06:20:05;;;;;;;;;;;14.20;43.50;;;;;;6118534;23;19996;-79
2022/09/20 06:22:43;;;;;;;;;;;14.20;43.20;;;;;;6087822;23;19917;-79
2022/09/20 06:25:21;;;;;;;;;;;14.30;43.30;;;;;;6095195;23;20266;-79
2022/09/20 06:27:48;;;;;;;;;;;14.30;43.80;;;;;;6096622;23;20340;-79
2022/09/20 06:30:44;;;;;;;;;;;14.30;43.80;;;;;;6118124;23;19917;-79
2022/09/20 06:33:11;;;;;;;;;;;14.30;43.80;;;;;;6082331;23;19917;-79
2022/09/20 06:35:40;;;;;;;;;;;14.30;43.80;;;;;;6119613;23;19917;-79
2022/09/20 06:43:48;;;;;;;;;;;14.30;44.30;;;;;;6096110;23;19992;-79
2022/09/20 06:46:16;;;;;;;;;;;14.40;44.10;;;;;;6096641;23;19917;-79
2022/09/20 06:48:42;;;;;;;;;;;14.40;43.90;;;;;;6120246;23;20303;-80
2022/09/20 06:51:09;;;;;;;;;;;14.40;43.90;;;;;;6118890;23;19924;-80
2022/09/20 06:53:39;;;;;;;;;;;14.50;44.20;;;;;;6119434;23;19923;-80
2022/09/20 06:56:12;;;;;;;;;;;14.50;43.60;;;;;;6119021;23;19944;-82
2022/09/20 06:58:39;;;;;;;;;;;14.60;43.80;;;;;;6119020;23;19921;-81
2022/09/20 07:01:06;;;;;;;;;;;14.70;43.90;;;;;;6082805;23;19923;-80
2022/09/20 07:03:36;;;;;;;;;;;14.80;43.00;;;;;;6095123;23;19925;-80
2022/09/20 07:06:03;;;;;;;;;;;14.90;44.20;;;;;;6094636;23;19923;-80
2022/09/20 07:08:29;;;;;;;;;;;15.00;43.80;;;;;;6095150;23;19917;-80
2022/09/20 07:11:01;;;;;;;;;;;15.20;44.70;;;;;;6095104;23;19924;-80
2022/09/20 07:13:28;;;;;;;;;;;15.30;45.90;;;;;;6094931;23;20368;-80
2022/09/20 07:16:05;;;;;;;;;;;15.40;42.20;;;;;;6117908;23;20002;-80
2022/09/20 07:18:32;;;;;;;;;;;15.60;42.90;;;;;;6094874;23;19917;-80
2022/09/20 07:20:59;;;;;;;;;;;15.80;41.30;;;;;;6095934;23;20254;-81
2022/09/20 07:23:27;;;;;;;;;;;16.00;42.40;;;;;;6119555;23;19996;-81
2022/09/20 07:25:58;;;;;;;;;;;16.10;41.60;;;;;;6118823;23;19924;-81
2022/09/20 07:28:25;;;;;;;;;;;16.30;41.80;;;;;;6119297;23;19923;-81
2022/09/20 07:30:53;;;;;;;;;;;16.40;40.90;;;;;;6118982;23;19984;-81
2022/09/20 07:33:20;;;;;;;;;;;16.60;41.30;;;;;;6095334;23;19993;-81
2022/09/20 07:35:47;;;;;;;;;;;16.80;40.10;;;;;;6119461;23;19917;-81
2022/09/20 07:38:15;;;;;;;;;;;16.90;40.60;;;;;;6118816;23;19944;-81
2022/09/20 07:40:44;;;;;;;;;;;17.10;40.10;;;;;;6119212;23;19961;-81
2022/09/20 07:43:11;;;;;;;;;;;17.30;39.90;;;;;;6095311;23;19997;-81
2022/09/20 07:45:38;;;;;;;;;;;17.50;39.30;;;;;;6119479;23;20415;-81
2022/09/20 07:48:08;;;;;;;;;;;17.70;40.30;;;;;;6118982;23;20346;-82
2022/09/20 07:50:35;;;;;;;;;;;17.80;39.30;;;;;;6119243;23;19920;-82
2022/09/20 07:53:03;;;;;;;;;;;17.90;38.40;;;;;;6118772;23;19941;-82
2022/09/20 07:55:30;;;;;;;;;;;18.00;37.10;;;;;;6096474;23;19988;-81
2022/09/20 07:57:57;;;;;;;;;;;18.20;38.20;;;;;;6095879;23;19992;-81
2022/09/20 08:00:23;;;;;;;;;;;18.30;36.90;;;;;;6094495;23;19944;-81
2022/09/20 08:02:57;;;;;;;;;;;18.40;35.70;;;;;;6119494;23;19979;-81
2022/09/20 08:05:24;;;;;;;;;;;18.50;35.30;;;;;;6094444;23;19917;-80
2022/09/20 08:07:51;;;;;;;;;;;18.60;38.40;;;;;;6119426;23;20258;-81
2022/09/20 08:10:18;;;;;;;;;;;18.80;38.20;;;;;;6093881;23;19924;-81
2022/09/20 08:12:45;;;;;;;;;;;19.00;36.70;;;;;;6118756;23;19917;-81
2022/09/20 08:15:32;;;;;;;;;;;19.30;36.70;;;;;;6095218;23;19924;-82
2022/09/20 08:17:59;;;;;;;;;;;19.50;35.70;;;;;;6119116;23;20258;-83
2022/09/20 08:20:25;;;;;;;;;;;19.50;32.90;;;;;;6095521;23;20327;-82
2022/09/20 08:22:54;;;;;;;;;;;19.50;33.40;;;;;;6119045;23;20252;-82
2022/09/20 08:25:40;;;;;;;;;;;19.50;35.30;;;;;;6114533;23;19917;-82
2022/09/20 08:28:07;;;;;;;;;;;19.40;41.10;;;;;;6096188;23;19928;-83
2022/09/20 08:30:34;;;;;;;;;;;19.50;43.40;;;;;;6118659;23;19917;-82
2022/09/20 08:33:02;;;;;;;;;;;19.40;42.10;;;;;;6119046;23;19918;-82
2022/09/20 08:35:29;;;;;;;;;;;19.60;38.40;;;;;;6095310;23;19917;-81
2022/09/20 08:37:56;;;;;;;;;;;19.50;35.90;;;;;;6118815;23;19992;-82
2022/09/20 08:40:43;;;;;;;;;;;19.50;35.10;;;;;;6113811;23;20675;-82
2022/09/20 08:43:10;;;;;;;;;;;19.60;35.00;;;;;;6096497;23;20010;-82
2022/09/20 08:45:38;;;;;;;;;;;19.70;36.30;;;;;;6118284;23;19924;-82
2022/09/20 08:48:07;;;;;;;;;;;19.80;35.50;;;;;;6119073;23;19918;-82
2022/09/20 08:50:35;;;;;;;;;;;19.80;35.20;;;;;;6118282;23;19999;-82
2022/09/20 08:53:05;;;;;;;;;;;20.00;36.70;;;;;;6118875;23;19917;-82
2022/09/20 08:55:34;;;;;;;;;;;20.20;36.10;;;;;;6095007;23;19940;-82
2022/09/20 08:58:03;;;;;;;;;;;20.10;35.80;;;;;;6118688;23;19941;-82
2022/09/20 09:00:35;;;;;;;;;;;20.20;36.00;;;;;;6095112;23;19921;-83
2022/09/20 09:03:20;;;;;;;;;;;20.40;36.30;;;;;;6118936;23;20250;-82
2022/09/20 09:05:53;;;;;;;;;;;20.60;36.40;;;;;;6117992;23;19992;-82
2022/09/20 09:08:26;;;;;;;;;;;20.80;36.00;;;;;;6119141;23;20330;-83
2022/09/20 09:10:55;;;;;;;;;;;20.90;35.90;;;;;;6095692;23;20294;-83
2022/09/20 09:13:40;;;;;;;;;;;21.10;35.70;;;;;;6118899;23;19917;-82
2022/09/20 09:16:11;;;;;;;;;;;21.20;34.40;;;;;;6095098;23;19996;-82
2022/09/20 09:18:39;;;;;;;;;;;21.30;35.30;;;;;;6095781;23;19968;-83
2022/09/20 09:21:06;;;;;;;;;;;21.20;34.60;;;;;;6116981;23;20378;-82
2022/09/20 09:23:40;;;;;;;;;;;21.10;34.80;;;;;;6117862;23;19917;-83
2022/09/20 09:26:15;;;;;;;;;;;21.10;35.50;;;;;;6117871;23;20398;-82
2022/09/20 09:28:42;;;;;;;;;;;20.90;36.20;;;;;;6118287;23;19939;-82
2022/09/20 09:31:24;;;;;;;;;;;21.30;35.20;;;;;;6118212;23;20410;-83
2022/09/20 09:33:51;;;;;;;;;;;21.30;36.40;;;;;;6117438;23;19917;-83
2022/09/20 09:36:23;;;;;;;;;;;21.50;37.00;;;;;;6118508;23;20302;-83
2022/09/20 09:39:10;;;;;;;;;;;21.70;36.10;;;;;;6095151;23;19921;-82
2022/09/20 09:41:36;;;;;;;;;;;21.50;36.20;;;;;;6095419;23;20313;-82
2022/09/20 09:44:17;;;;;;;;;;;21.90;35.60;;;;;;6117107;23;19972;-82
2022/09/20 09:46:44;;;;;;;;;;;22.10;33.90;;;;;;6118227;23;19921;-83
2022/09/20 09:49:17;;;;;;;;;;;22.10;32.70;;;;;;6116674;23;19921;-82
2022/09/20 09:52:08;;;;;;;;;;;21.90;33.40;;;;;;6094922;23;19917;-83
2022/09/20 09:54:37;;;;;;;;;;;22.10;33.80;;;;;;6086339;23;19924;-83
2022/09/20 09:57:19;;;;;;;;;;;22.20;33.70;;;;;;6118441;23;19921;-83
2022/09/20 09:59:59;;;;;;;;;;;22.00;33.50;;;;;;6116958;23;19921;-83
2022/09/20 10:02:49;;;;;;;;;;;21.90;33.90;;;;;;6093344;23;19917;-82
2022/09/20 10:05:26;;;;;;;;;;;21.90;34.60;;;;;;6095443;23;19945;-82
2022/09/20 10:08:09;;;;;;;;;;;22.20;36.70;;;;;;6119122;23;19917;-82
2022/09/20 10:10:36;;;;;;;;;;;22.50;37.00;;;;;;6119110;23;20258;-83
2022/09/20 10:13:15;;;;;;;;;;;22.70;36.00;;;;;;6120048;23;19929;-83
2022/09/20 10:15:58;;;;;;;;;;;22.80;36.50;;;;;;6118883;23;19923;-82
2022/09/20 10:18:31;;;;;;;;;;;23.10;36.40;;;;;;6119751;23;20475;-82
2022/09/20 10:21:17;;;;;;;;;;;23.30;36.00;;;;;;6118896;23;19991;-83
2022/09/20 10:23:55;;;;;;;;;;;22.70;34.80;;;;;;6095240;23;19992;-83
2022/09/20 10:26:39;;;;;;;;;;;22.60;36.70;;;;;;6118979;23;19997;-83
2022/09/20 10:29:14;;;;;;;;;;;22.90;37.00;;;;;;6120210;23;19984;-84
2022/09/20 10:31:51;;;;;;;;;;;22.60;34.80;;;;;;6120469;23;19956;-83
2022/09/20 10:34:30;;;;;;;;;;;22.60;35.20;;;;;;6095196;23;20254;-83
2022/09/20 10:36:58;;;;;;;;;;;22.60;34.80;;;;;;6119837;23;20004;-83
2022/09/20 10:39:27;;;;;;;;;;;22.80;34.40;;;;;;6097062;23;19917;-83
2022/09/20 10:44:58;;;;;;;;;;;23.00;34.10;;;;;;6096718;23;19921;-84
2022/09/20 10:47:31;;;;;;;;;;;22.90;33.10;;;;;;6119949;23;19917;-82
2022/09/20 10:50:06;;;;;;;;;;;22.80;34.20;;;;;;6119200;23;19925;-83
2022/09/20 10:52:33;;;;;;;;;;;22.90;33.60;;;;;;6120315;23;20239;-85
2022/09/20 10:55:06;;;;;;;;;;;23.10;34.20;;;;;;6119386;23;19917;-81
2022/09/20 10:57:38;;;;;;;;;;;23.10;33.10;;;;;;6119972;23;19917;-84
2022/09/20 11:00:17;;;;;;;;;;;23.30;33.20;;;;;;6117714;23;19917;-84
2022/09/20 11:02:50;;;;;;;;;;;23.20;33.70;;;;;;6119606;23;19949;-84
2022/09/20 11:05:23;;;;;;;;;;;23.50;34.30;;;;;;6119280;23;19996;-84
2022/09/20 11:07:51;;;;;;;;;;;23.30;33.10;;;;;;6119341;23;19948;-84
2022/09/20 11:10:24;;;;;;;;;;;23.10;33.50;;;;;;6094042;23;19948;-84
2022/09/20 11:12:54;;;;;;;;;;;22.70;33.90;;;;;;6095506;23;19952;-85
2022/09/20 11:15:26;;;;;;;;;;;22.50;34.40;;;;;;6119129;23;19917;-85
2022/09/20 11:18:20;;;;;;;;;;;22.90;35.80;;;;;;6119307;23;20335;-84
2022/09/20 11:20:53;;;;;;;;;;;23.20;35.00;;;;;;6087310;23;19927;-85
2022/09/20 11:23:26;;;;;;;;;;;23.40;34.80;;;;;;6118230;23;19917;-85
2022/09/20 11:25:55;;;;;;;;;;;23.50;33.60;;;;;;6117742;23;19928;-84
2022/09/20 11:28:25;;;;;;;;;;;23.70;32.50;;;;;;6095255;23;20298;-85
2022/09/20 11:30:54;;;;;;;;;;;23.90;34.10;;;;;;6118688;23;19995;-86
2022/09/20 11:33:26;;;;;;;;;;;23.50;33.10;;;;;;6119144;23;19917;-85
2022/09/20 11:36:01;;;;;;;;;;;23.30;35.10;;;;;;6118306;23;20354;-85
2022/09/20 11:38:28;;;;;;;;;;;23.30;33.40;;;;;;6119365;23;19921;-85
2022/09/20 11:40:59;;;;;;;;;;;23.50;34.70;;;;;;6095929;23;20215;-85
2022/09/20 11:43:27;;;;;;;;;;;23.20;34.60;;;;;;6119547;23;19917;-84
2022/09/20 11:45:57;;;;;;;;;;;23.60;35.90;;;;;;6118654;23;19917;-84
2022/09/20 11:48:24;;;;;;;;;;;24.10;34.70;;;;;;6119769;23;19992;-85
2022/09/20 11:51:08;;;;;;;;;;;24.60;32.60;;;;;;6095221;23;20342;-85
2022/09/20 11:53:46;;;;;;;;;;;24.40;32.80;;;;;;6118448;23;19918;-85
2022/09/20 11:56:19;;;;;;;;;;;23.50;35.70;;;;;;6118890;23;20000;-85
2022/09/20 11:58:50;;;;;;;;;;;23.80;34.80;;;;;;6118299;23;19944;-85
2022/09/20 12:01:43;;;;;;;;;;;23.80;34.50;;;;;;6094668;23;19928;-85
2022/09/20 12:04:12;;;;;;;;;;;23.60;35.10;;;;;;6090453;23;19924;-85
2022/09/20 12:07:01;;;;;;;;;;;23.60;35.30;;;;;;6093877;23;19928;-84
2022/09/20 12:09:39;;;;;;;;;;;23.50;35.30;;;;;;6118164;23;19918;-85
2022/09/20 12:12:24;;;;;;;;;;;23.60;34.30;;;;;;6095305;23;19995;-85
2022/09/20 12:14:52;;;;;;;;;;;23.80;34.40;;;;;;6118589;23;19952;-84
2022/09/20 12:17:38;;;;;;;;;;;24.00;34.40;;;;;;6119466;23;19917;-85
2022/09/20 12:20:23;;;;;;;;;;;24.40;33.20;;;;;;6118453;23;20357;-85
2022/09/20 12:22:50;;;;;;;;;;;24.40;33.20;;;;;;6118293;23;19928;-85
2022/09/20 12:25:38;;;;;;;;;;;24.60;33.30;;;;;;6119673;23;20250;-85
2022/09/20 12:28:12;;;;;;;;;;;24.80;31.50;;;;;;6095418;23;19917;-85
2022/09/20 12:30:39;;;;;;;;;;;24.70;31.30;;;;;;6119008;23;19987;-85
2022/09/20 12:33:18;;;;;;;;;;;24.80;31.60;;;;;;6118492;23;19932;-86
2022/09/20 12:35:52;;;;;;;;;;;24.80;32.40;;;;;;6119299;23;19917;-85
2022/09/20 12:38:18;;;;;;;;;;;24.90;30.90;;;;;;6118878;23;19992;-86
2022/09/20 12:40:57;;;;;;;;;;;25.10;31.20;;;;;;6119373;23;20004;-86
2022/09/20 12:43:26;;;;;;;;;;;24.90;30.70;;;;;;6118472;23;19917;-86
2022/09/20 12:45:53;;;;;;;;;;;24.50;31.20;;;;;;6119381;23;20394;-87
2022/09/20 12:48:20;;;;;;;;;;;24.40;31.60;;;;;;6094330;23;19925;-87
2022/09/20 12:54:00;;;;;;;;;;;24.60;31.60;;;;;;6095357;23;19917;-86
2022/09/20 12:56:27;;;;;;;;;;;24.60;30.60;;;;;;6118243;23;19949;-86
2022/09/20 13:17:12;;;;;;;;;;;25.20;30.70;;;;;;6064485;23;19919;-83
2022/09/20 13:19:43;;;;;;;;;;;25.00;29.90;;;;;;6095202;23;20357;-86
2022/09/20 13:22:13;;;;;;;;;;;25.30;30.20;;;;;;6118579;23;20390;-85
2022/09/20 13:24:47;;;;;;;;;;;25.70;30.40;;;;;;6118466;23;19964;-85
2022/09/20 13:27:21;;;;;;;;;;;25.60;29.60;;;;;;6118616;23;20318;-85
2022/09/20 13:29:48;;;;;;;;;;;25.50;30.30;;;;;;6122165;23;19944;-85
2022/09/20 13:32:28;;;;;;;;;;;25.60;29.50;;;;;;6125439;23;19940;-85
2022/09/20 13:35:12;;;;;;;;;;;25.40;30.00;;;;;;6127231;23;20258;-85
2022/09/20 13:37:42;;;;;;;;;;;25.60;30.00;;;;;;6125883;23;19917;-84
2022/09/20 13:40:20;;;;;;;;;;;25.60;30.00;;;;;;6125676;23;19924;-85
2022/09/20 13:42:47;;;;;;;;;;;25.50;30.00;;;;;;6128682;23;19921;-85
2022/09/20 13:45:15;;;;;;;;;;;25.10;29.60;;;;;;6128915;23;19921;-86
2022/09/20 13:47:43;;;;;;;;;;;25.50;30.00;;;;;;6127857;23;19917;-85
2022/09/20 13:50:16;;;;;;;;;;;25.70;30.00;;;;;;6129944;23;19968;-86
2022/09/20 13:52:45;;;;;;;;;;;25.60;29.70;;;;;;6129636;23;19917;-86
2022/09/20 13:55:44;;;;;;;;;;;25.10;30.40;;;;;;6129581;23;19921;-85
2022/09/20 13:58:22;;;;;;;;;;;24.80;30.70;;;;;;6058437;23;20236;-85
2022/09/20 14:00:51;;;;;;;;;;;24.90;30.30;;;;;;6120774;23;20299;-86
2022/09/20 14:03:18;;;;;;;;;;;24.80;30.90;;;;;;6120803;23;19921;-85
2022/09/20 14:05:46;;;;;;;;;;;25.20;31.00;;;;;;6120799;23;19945;-85
2022/09/20 14:08:17;;;;;;;;;;;25.80;30.10;;;;;;6119797;23;19921;-86
2022/09/20 14:10:45;;;;;;;;;;;25.20;30.00;;;;;;6120671;23;19945;-85
2022/09/20 14:13:15;;;;;;;;;;;24.70;31.00;;;;;;6119285;23;19936;-86
2022/09/20 14:15:43;;;;;;;;;;;24.70;32.00;;;;;;6120186;23;19923;-86
2022/09/20 14:18:15;;;;;;;;;;;25.00;31.80;;;;;;6119429;23;19917;-85
2022/09/20 14:20:45;;;;;;;;;;;25.00;30.80;;;;;;6120571;23;19948;-86
2022/09/20 14:23:19;;;;;;;;;;;24.60;31.10;;;;;;6119296;23;19945;-86
2022/09/20 14:26:04;;;;;;;;;;;24.40;31.90;;;;;;6120427;23;19937;-86
2022/09/20 14:28:31;;;;;;;;;;;24.20;31.30;;;;;;6120071;23;20341;-85
2022/09/20 14:31:27;;;;;;;;;;;24.30;31.80;;;;;;6120214;23;20004;-85
2022/09/20 14:33:56;;;;;;;;;;;24.60;32.20;;;;;;6083808;23;19917;-85
2022/09/20 14:36:24;;;;;;;;;;;24.90;31.50;;;;;;6120930;23;20012;-84
2022/09/20 14:38:52;;;;;;;;;;;24.80;31.70;;;;;;6119480;23;19917;-85
2022/09/20 14:41:39;;;;;;;;;;;24.70;31.00;;;;;;6119981;23;19992;-85
2022/09/20 14:44:15;;;;;;;;;;;24.70;31.70;;;;;;6119727;23;20302;-84
2022/09/20 14:46:42;;;;;;;;;;;25.00;30.80;;;;;;6095107;23;19923;-83
2022/09/20 14:49:29;;;;;;;;;;;24.60;32.30;;;;;;6120311;23;19996;-84
2022/09/20 14:52:14;;;;;;;;;;;24.60;32.40;;;;;;6094965;23;19917;-85
2022/09/20 14:54:41;;;;;;;;;;;24.90;32.00;;;;;;6120118;23;19917;-84
2022/09/20 14:57:08;;;;;;;;;;;24.60;31.70;;;;;;6107464;23;20258;-84
2022/09/20 14:59:41;;;;;;;;;;;24.50;33.20;;;;;;6120255;23;19917;-84
2022/09/20 15:02:13;;;;;;;;;;;24.20;32.80;;;;;;6119376;23;20011;-84
2022/09/20 15:04:41;;;;;;;;;;;24.10;33.10;;;;;;6120617;23;19917;-84
2022/09/20 15:07:10;;;;;;;;;;;24.10;33.10;;;;;;6119120;23;19959;-84
2022/09/20 15:09:37;;;;;;;;;;;24.10;33.20;;;;;;6120006;23;19996;-84
2022/09/20 15:12:05;;;;;;;;;;;24.30;33.20;;;;;;6118964;23;20402;-84
2022/09/20 15:14:31;;;;;;;;;;;24.50;32.80;;;;;;6097382;23;20330;-84
2022/09/20 15:17:03;;;;;;;;;;;24.20;33.00;;;;;;6117934;23;19921;-85
2022/09/20 15:19:30;;;;;;;;;;;24.30;32.70;;;;;;6095220;23;19917;-85
2022/09/20 15:21:58;;;;;;;;;;;24.30;32.70;;;;;;6118967;23;19972;-85
2022/09/20 15:24:24;;;;;;;;;;;24.30;32.70;;;;;;6118837;23;19917;-84
2022/09/20 15:26:51;;;;;;;;;;;24.20;32.90;;;;;;6118340;23;19941;-84
2022/09/20 15:29:18;;;;;;;;;;;23.90;33.40;;;;;;6119434;23;19921;-84